Sun Prairie, WI (53590)

10:33 PM CST on February 10, 2016 (GMT -0600)
Northside School | | Change Station
CLOSE
Current Station
Personal Weather Station
Location: Sun Prairie, WI
Elevation: 1007 ft
Nearby Weather Stations

Elev 1007 ft 43.19 °N, 89.22 °W | Updated 5 seconds ago

Partly Cloudy
Partly Cloudy
7.4 °F
Feels Like 7 °F
N
0.0
Wind Variable Wind from NW
Gusts 0.0 mph

Today
High -- | Low -- °F
--% Chance of Precip.
Yesterday
High -- | Low -- °F
Precip. -- in
Pressure 30.22 in
Visibility 10.0 miles
Clouds Scattered Clouds 12000 ft
Windchill 7 °F
Dew Point 1 °F
Humidity 73%
Rainfall 0.00 in
Snow Depth Not available.
7:02 AM 5:20 PM
Waxing Crescent, 9% visible
METAR KMSN 110353Z 31004KT 10SM SCT120 M14/M19 A3016 RMK AO2 SLP234 T11391194
Pressure 30.22 in
Visibility 10.0 miles
Clouds Scattered Clouds 12000 ft
Windchill 7 °F
Dew Point 1 °F
Humidity 73%
Rainfall 0.00 in
Snow Depth Not available.
7:02 AM 5:20 PM
Waxing Crescent, 9% visible
METAR KMSN 110353Z 31004KT 10SM SCT120 M14/M19 A3016 RMK AO2 SLP234 T11391194

10-Day Weather Forecast

Almanac

Astronomy

Feb. 10, 2016 Rise Set
Actual Time
Civil Twilight
Nautical Twilight
Astronomical Twilight
Moon
Length of Visible Light
Length of Day
Tomorrow will be .
, % of the Moon is Illuminated

Today's Extremes

State Highs State Lows

Community

WunderPhotos

Upload Photos

1,892,014 photos uploaded!

WunderBlog® & News

Nearby

Air Quality

  Air Quality AQ Index Pollutant
Not available.

Snow Depth

Station Depth Elevation

Earthquake Activity

City Distance Mag. Time & Date
Minimum magnitude displayed is 2.5.

Coastal Water Temperatures

Place Temperature

Stations

Nearby Weather Stations

Station Location Temp. Windchill Dew Point Humidity Wind Precip. Elev Updated Type
                   

Watches & Warnings

There are currently no watches in effect.